createdAt,value
2023-02-23T00:09:23.179Z,101006.81
2023-02-23T00:19:26.297Z,101001.78
2023-02-23T00:29:38.472Z,101007.78
2023-02-23T00:39:41.514Z,101003.47
2023-02-23T00:49:46.105Z,100989.88
2023-02-23T00:59:49.127Z,101001.47
2023-02-23T01:09:53.830Z,100999.13
2023-02-23T01:19:57.039Z,100996.16
2023-02-23T01:30:01.340Z,100998.56
2023-02-23T01:40:10.732Z,101003.09
2023-02-23T01:50:16.301Z,101005.22
2023-02-23T02:00:25.811Z,101009.03
2023-02-23T02:10:46.612Z,101016.22
2023-02-23T02:21:30.092Z,101020.28
2023-02-23T02:32:03.431Z,101011.47
2023-02-23T02:42:20.092Z,101008.44
2023-02-23T02:52:31.109Z,101014.78
2023-02-23T03:02:56.054Z,101011.66
2023-02-23T03:13:26.622Z,101012.50
2023-02-23T03:23:59.477Z,101010.25
2023-02-23T03:34:28.313Z,101021.91
2023-02-23T03:44:55.752Z,101025.81
2023-02-23T03:55:21.181Z,101037.81
2023-02-23T04:05:44.250Z,101031.25
2023-02-23T04:15:50.127Z,101032.03
2023-02-23T04:25:55.060Z,101055.66
2023-02-23T04:35:58.084Z,101053.41
2023-02-23T04:46:05.119Z,101055.38
2023-02-23T04:56:08.744Z,101055.00
2023-02-23T05:06:13.231Z,101059.72
2023-02-23T05:16:16.539Z,101064.84
2023-02-23T05:26:20.911Z,101077.97
2023-02-23T05:36:24.038Z,101071.03
2023-02-23T05:46:29.469Z,101083.41
2023-02-23T05:56:32.922Z,101083.41
2023-02-23T06:06:37.577Z,101081.09
2023-02-23T06:16:40.742Z,101089.28
2023-02-23T06:26:45.117Z,101097.47
2023-02-23T06:36:48.117Z,101108.78
2023-02-23T06:46:52.851Z,101127.75
2023-02-23T06:56:57.020Z,101118.81
2023-02-23T07:07:01.812Z,101137.69
2023-02-23T07:17:05.528Z,101150.88
2023-02-23T07:27:10.081Z,101156.94
2023-02-23T07:37:13.212Z,101172.69
2023-02-23T07:47:17.841Z,101198.22
2023-02-23T07:57:23.376Z,101215.97
2023-02-23T08:07:28.913Z,101227.47
2023-02-23T08:17:31.879Z,101221.84
2023-02-23T08:27:36.843Z,101247.63
2023-02-23T08:37:39.847Z,101246.63
2023-02-23T08:47:44.207Z,101255.28
2023-02-23T08:57:47.747Z,101269.63
2023-02-23T09:07:52.933Z,101271.59
2023-02-23T09:18:01.534Z,101281.81
2023-02-23T09:28:07.398Z,101300.41
2023-02-23T09:38:13.984Z,101302.00
2023-02-23T09:48:27.086Z,101303.97
2023-02-23T09:58:34.197Z,101317.69
2023-02-23T10:08:55.544Z,101325.03
2023-02-23T10:19:06.999Z,101318.97
2023-02-23T10:29:23.205Z,101327.13
2023-02-23T10:39:27.512Z,101320.66
2023-02-23T10:49:40.389Z,101339.81
2023-02-23T11:00:02.746Z,101331.78
2023-02-23T11:10:29.121Z,101341.13
2023-02-23T11:20:36.264Z,101345.50
2023-02-23T11:30:43.394Z,101348.09
2023-02-23T11:41:01.571Z,101346.19
2023-02-23T11:51:24.946Z,101339.06
2023-02-23T12:01:41.763Z,101351.66
2023-02-23T12:11:53.179Z,101328.94
2023-02-23T12:22:05.306Z,101306.00
2023-02-23T12:32:16.767Z,101319.09
2023-02-23T12:42:27.224Z,101315.97
2023-02-23T12:52:35.970Z,101313.75
2023-02-23T13:02:47.840Z,101330.00
2023-02-23T13:13:00.693Z,101322.25
2023-02-23T13:23:15.741Z,101321.97
2023-02-23T13:33:34.970Z,101329.94
2023-02-23T13:43:54.457Z,101335.81
2023-02-23T13:54:06.804Z,101335.63
2023-02-23T14:04:17.184Z,101331.84
2023-02-23T14:14:43.221Z,101331.59
2023-02-23T14:24:46.411Z,101344.94
2023-02-23T14:34:58.044Z,101349.50
2023-02-23T14:45:07.133Z,101350.81
2023-02-23T14:55:22.588Z,101349.03
2023-02-23T15:05:30.325Z,101343.06
2023-02-23T15:15:34.972Z,101346.91
2023-02-23T15:25:41.778Z,101342.16
2023-02-23T15:35:52.257Z,101349.69
2023-02-23T15:45:56.517Z,101339.13
2023-02-23T15:56:06.309Z,101356.31
2023-02-23T16:06:24.245Z,101344.66
2023-02-23T16:16:29.481Z,101350.00
2023-02-23T16:26:38.251Z,101354.34
2023-02-23T16:36:43.516Z,101347.47
2023-02-23T16:47:36.532Z,101360.00
2023-02-23T16:57:42.534Z,101363.59
2023-02-23T17:07:46.560Z,101363.59
2023-02-23T17:17:53.438Z,101364.41
2023-02-23T17:27:57.641Z,101378.03
2023-02-23T17:38:02.622Z,101387.47
2023-02-23T17:48:05.630Z,101380.59
2023-02-23T17:58:10.326Z,101376.88
2023-02-23T18:08:14.069Z,101368.97
2023-02-23T18:18:18.801Z,101386.44
2023-02-23T18:28:22.016Z,101390.31
2023-02-23T18:38:26.620Z,101413.72
2023-02-23T18:48:29.628Z,101415.00
2023-02-23T18:58:34.227Z,101424.72
2023-02-23T19:08:37.567Z,101417.84
2023-02-23T19:18:41.932Z,101422.16
2023-02-23T19:28:45.669Z,101449.00
2023-02-23T19:38:50.191Z,101440.97
2023-02-23T19:48:53.609Z,101451.09
2023-02-23T19:58:58.746Z,101447.28
2023-02-23T20:09:04.686Z,101439.94
2023-02-23T20:19:09.245Z,101455.09
2023-02-23T20:29:17.969Z,101451.63
2023-02-23T20:39:24.318Z,101448.94
2023-02-23T20:49:27.759Z,101441.59
2023-02-23T20:59:32.424Z,101423.06
2023-02-23T21:09:35.589Z,101447.44
2023-02-23T21:19:40.397Z,101428.13
2023-02-23T21:29:44.152Z,101424.19
2023-02-23T21:39:50.036Z,101416.41
2023-02-23T21:49:54.516Z,101418.25
2023-02-23T21:59:58.915Z,101417.38
2023-02-23T22:10:02.113Z,101428.78
2023-02-23T22:20:08.433Z,101425.94
2023-02-23T22:30:13.418Z,101425.38
2023-02-23T22:40:18.057Z,101430.69
2023-02-23T22:50:21.186Z,101433.72
2023-02-23T23:00:27.439Z,101432.13
2023-02-23T23:10:30.509Z,101409.34
2023-02-23T23:20:35.192Z,101401.59
2023-02-23T23:30:38.170Z,101403.50
2023-02-23T23:40:46.921Z,101384.13
2023-02-23T23:50:50.254Z,101365.06
